Time;durP1;ratioP1;P1;durP2;ratioP2;P2;SDS_P1;SDS_P2;PMS_P1;PMS_P2;Temp;Humidity;BMP_temperature;BMP_pressure;BME280_temperature;BME280_humidity;BME280_pressure;Samples;Min_cycle;Max_cycle;Signal;HPM_P1;HPM_P2
2021/04/28 00:02:15;;;;;;;4.57;1.88;;;6.30;59.10;;;;;;4952980;28;20027;-68
2021/04/28 00:04:40;;;;;;;5.43;2.30;;;6.30;59.20;;;;;;4948928;29;20024;-68
2021/04/28 00:07:06;;;;;;;4.05;2.50;;;6.30;59.30;;;;;;4943849;29;20027;-68
2021/04/28 00:09:32;;;;;;;3.83;2.38;;;6.30;59.50;;;;;;4949108;29;20049;-68
2021/04/28 00:11:59;;;;;;;6.78;2.13;;;6.20;59.70;;;;;;4953158;29;20039;-68
2021/04/28 00:14:25;;;;;;;4.03;2.78;;;6.20;60.00;;;;;;4953685;28;20028;-68
2021/04/28 00:16:51;;;;;;;4.40;2.60;;;6.10;60.20;;;;;;4952828;28;20046;-68
2021/04/28 00:19:16;;;;;;;6.68;3.10;;;6.10;60.30;;;;;;4953552;29;20027;-68
2021/04/28 00:21:42;;;;;;;4.47;2.70;;;6.00;60.80;;;;;;4947599;29;20028;-68
2021/04/28 00:24:10;;;;;;;5.35;2.45;;;6.00;60.80;;;;;;4947318;29;20438;-68
2021/04/28 00:26:36;;;;;;;8.45;3.20;;;6.10;60.90;;;;;;4952320;29;20034;-68
2021/04/28 00:29:02;;;;;;;5.00;2.83;;;6.10;61.10;;;;;;4955466;28;20027;-68
2021/04/28 00:31:27;;;;;;;5.13;3.00;;;6.10;61.20;;;;;;4956051;28;20110;-68
2021/04/28 00:33:53;;;;;;;5.20;2.70;;;6.00;61.20;;;;;;4947317;29;20174;-68
2021/04/28 00:36:18;;;;;;;7.40;3.55;;;6.00;61.30;;;;;;4953323;29;20063;-69
2021/04/28 00:38:45;;;;;;;8.02;3.38;;;5.90;61.30;;;;;;4953499;29;20030;-68
2021/04/28 00:41:10;;;;;;;5.45;2.95;;;6.00;61.50;;;;;;4952517;28;20027;-68
2021/04/28 00:43:37;;;;;;;4.80;2.40;;;6.00;61.50;;;;;;4950157;28;20023;-68
2021/04/28 00:46:04;;;;;;;10.70;4.35;;;6.00;61.50;;;;;;4956272;29;20036;-69
2021/04/28 00:48:31;;;;;;;4.95;2.50;;;6.00;61.40;;;;;;4950598;28;20055;-69
2021/04/28 00:50:56;;;;;;;4.97;2.72;;;5.90;61.50;;;;;;4944257;29;20557;-68
2021/04/28 00:53:24;;;;;;;4.68;2.92;;;5.90;61.60;;;;;;4951990;29;20031;-69
2021/04/28 00:55:50;;;;;;;8.82;3.28;;;5.90;61.80;;;;;;4955103;29;20031;-69
2021/04/28 00:58:16;;;;;;;7.82;3.15;;;5.90;61.90;;;;;;4954285;28;20110;-69
2021/04/28 01:00:43;;;;;;;5.72;3.15;;;5.90;62.00;;;;;;4954796;29;20159;-68
2021/04/28 01:03:09;;;;;;;7.93;3.58;;;5.90;62.10;;;;;;4939764;29;20035;-68
2021/04/28 01:05:35;;;;;;;6.13;2.85;;;5.90;62.20;;;;;;4951507;28;20023;-66
2021/04/28 01:08:01;;;;;;;7.10;3.15;;;5.90;62.30;;;;;;4946675;29;20433;-66
2021/04/28 01:10:32;;;;;;;8.43;3.58;;;5.90;62.50;;;;;;4954237;28;20031;-66
2021/04/28 01:12:58;;;;;;;6.95;3.58;;;5.80;62.60;;;;;;4970578;28;20034;-66
2021/04/28 01:15:29;;;;;;;8.10;3.40;;;5.70;62.90;;;;;;4954286;28;20039;-66
2021/04/28 01:17:55;;;;;;;5.68;3.47;;;5.70;63.10;;;;;;4952380;29;20047;-66
2021/04/28 01:20:22;;;;;;;7.63;3.42;;;5.60;63.20;;;;;;4949825;29;20035;-66
2021/04/28 01:22:49;;;;;;;6.20;3.15;;;5.60;63.50;;;;;;4941227;28;20038;-66
2021/04/28 01:25:18;;;;;;;10.48;3.42;;;5.60;63.60;;;;;;4954150;29;20028;-66
2021/04/28 01:27:53;;;;;;;6.47;3.20;;;5.60;63.60;;;;;;4956326;28;20097;-66
2021/04/28 01:30:20;;;;;;;7.82;3.25;;;5.50;63.80;;;;;;4954480;29;20371;-66
2021/04/28 01:32:48;;;;;;;8.00;2.95;;;5.50;63.80;;;;;;4954487;28;20031;-66
2021/04/28 01:35:17;;;;;;;6.15;3.35;;;5.50;64.00;;;;;;4952184;29;20035;-66
2021/04/28 01:37:43;;;;;;;5.80;2.83;;;5.40;64.20;;;;;;4955931;28;20118;-66
2021/04/28 01:40:11;;;;;;;5.63;2.90;;;5.40;64.30;;;;;;4951474;28;20094;-66
2021/04/28 01:42:36;;;;;;;9.27;3.53;;;5.40;64.50;;;;;;4945854;28;20027;-66
2021/04/28 01:45:03;;;;;;;7.22;3.88;;;5.30;64.80;;;;;;4954546;28;20023;-66
2021/04/28 01:47:29;;;;;;;6.68;3.40;;;5.30;64.90;;;;;;4954392;28;20042;-66
2021/04/28 01:49:55;;;;;;;5.88;2.92;;;5.30;65.00;;;;;;4954948;29;20031;-66
2021/04/28 01:52:21;;;;;;;4.82;2.80;;;5.30;65.10;;;;;;4952139;28;20039;-66
2021/04/28 01:54:47;;;;;;;6.68;3.15;;;5.20;65.10;;;;;;4948155;28;20046;-66
2021/04/28 01:57:14;;;;;;;9.57;3.78;;;5.20;65.30;;;;;;4952133;29;20058;-66
2021/04/28 01:59:40;;;;;;;6.85;3.38;;;5.20;65.40;;;;;;4945288;29;21502;-66
2021/04/28 02:02:10;;;;;;;7.63;3.22;;;5.20;65.50;;;;;;4955403;28;20078;-66
2021/04/28 02:04:37;;;;;;;6.05;2.83;;;5.20;65.40;;;;;;4954578;29;20504;-66
2021/04/28 02:07:03;;;;;;;6.18;3.30;;;5.20;65.50;;;;;;4954253;29;20035;-66
2021/04/28 02:09:30;;;;;;;7.00;2.95;;;5.30;65.50;;;;;;4956146;28;20039;-66
2021/04/28 02:11:56;;;;;;;7.35;3.30;;;5.30;65.40;;;;;;4952938;28;20541;-66
2021/04/28 02:14:22;;;;;;;7.53;3.50;;;5.30;65.50;;;;;;4951098;29;20027;-66
2021/04/28 02:16:49;;;;;;;6.00;3.75;;;5.30;65.60;;;;;;4954174;29;20369;-67
2021/04/28 02:19:15;;;;;;;6.80;2.63;;;5.30;65.70;;;;;;4955938;28;20037;-66
2021/04/28 02:21:43;;;;;;;6.47;2.95;;;5.20;65.70;;;;;;4951831;28;20028;-66
2021/04/28 02:24:12;;;;;;;7.22;3.65;;;5.30;65.90;;;;;;4943227;28;20041;-66
2021/04/28 02:26:37;;;;;;;5.38;3.28;;;5.30;65.90;;;;;;4951030;28;20027;-66
2021/04/28 02:29:04;;;;;;;6.63;2.80;;;5.30;65.80;;;;;;4948581;29;20415;-66
2021/04/28 02:31:29;;;;;;;5.50;3.58;;;5.20;65.80;;;;;;4953377;28;20039;-66
2021/04/28 02:33:55;;;;;;;6.88;3.75;;;5.20;65.90;;;;;;4939049;28;20031;-66
2021/04/28 02:36:22;;;;;;;8.82;3.83;;;5.20;66.00;;;;;;4948607;29;20043;-66
2021/04/28 02:38:54;;;;;;;5.47;2.92;;;5.20;65.90;;;;;;4944890;28;20110;-66
2021/04/28 02:41:21;;;;;;;6.97;3.15;;;5.20;66.10;;;;;;4948579;28;20039;-66
2021/04/28 02:43:48;;;;;;;8.27;3.67;;;5.10;66.10;;;;;;4954182;28;20585;-66
2021/04/28 02:46:16;;;;;;;5.38;3.88;;;5.10;66.30;;;;;;4953849;29;20117;-66
2021/04/28 02:48:43;;;;;;;5.45;3.03;;;5.10;66.40;;;;;;4950369;28;20488;-66
2021/04/28 02:51:10;;;;;;;8.30;3.38;;;5.10;66.50;;;;;;4950512;28;20474;-66
2021/04/28 02:53:36;;;;;;;7.45;3.65;;;5.00;66.50;;;;;;4949961;28;20032;-66
2021/04/28 02:56:02;;;;;;;7.13;3.80;;;5.00;66.60;;;;;;4943801;29;20027;-66
2021/04/28 02:58:28;;;;;;;6.32;3.53;;;5.00;66.60;;;;;;4949742;28;20031;-66
2021/04/28 03:00:56;;;;;;;5.60;3.10;;;5.00;66.60;;;;;;4946245;29;20027;-66
2021/04/28 03:03:22;;;;;;;5.45;3.15;;;5.00;66.70;;;;;;4950401;29;20433;-66
2021/04/28 03:05:51;;;;;;;6.88;3.17;;;4.90;66.80;;;;;;4945233;29;20154;-66
2021/04/28 03:08:18;;;;;;;4.80;2.85;;;4.90;66.80;;;;;;4953667;28;20016;-66
2021/04/28 03:10:45;;;;;;;4.70;3.00;;;4.90;66.80;;;;;;4952473;28;20178;-66
2021/04/28 03:13:17;;;;;;;7.82;2.83;;;4.90;66.80;;;;;;4997651;28;20374;-67
2021/04/28 03:15:43;;;;;;;5.82;3.40;;;4.90;66.80;;;;;;4981878;28;20032;-66
2021/04/28 03:18:11;;;;;;;5.72;3.42;;;4.80;66.90;;;;;;4969399;28;20027;-66
2021/04/28 03:20:38;;;;;;;6.80;3.13;;;4.80;67.10;;;;;;4980752;28;20035;-66
2021/04/28 03:23:06;;;;;;;12.32;3.70;;;4.80;67.00;;;;;;4966490;28;20118;-66
2021/04/28 03:25:32;;;;;;;7.68;4.05;;;4.80;67.60;;;;;;4977107;28;20023;-67
2021/04/28 03:27:57;;;;;;;10.05;4.00;;;4.80;67.10;;;;;;4984922;28;20029;-67
2021/04/28 03:30:23;;;;;;;7.45;3.25;;;4.80;67.20;;;;;;4986764;28;20105;-66
2021/04/28 03:32:49;;;;;;;7.72;3.70;;;4.70;67.30;;;;;;4975159;28;20039;-66
2021/04/28 03:35:14;;;;;;;8.65;4.57;;;4.70;67.20;;;;;;4973500;28;20030;-66
2021/04/28 03:37:40;;;;;;;7.18;3.67;;;4.70;67.30;;;;;;4984858;28;20102;-66
2021/04/28 03:40:07;;;;;;;5.95;3.35;;;4.70;67.30;;;;;;4981237;28;20385;-66
2021/04/28 03:42:33;;;;;;;6.72;3.22;;;4.80;67.30;;;;;;4977782;28;20031;-66
2021/04/28 03:44:58;;;;;;;7.10;3.55;;;4.70;67.30;;;;;;4979981;28;20024;-67
2021/04/28 03:47:24;;;;;;;6.80;3.50;;;4.70;67.30;;;;;;4972756;28;20026;-66
2021/04/28 03:49:50;;;;;;;8.95;4.15;;;4.70;67.40;;;;;;4974719;28;20512;-66
2021/04/28 03:52:16;;;;;;;5.28;3.42;;;4.70;67.40;;;;;;4979233;28;20037;-66
2021/04/28 03:54:41;;;;;;;6.53;3.38;;;4.70;67.30;;;;;;4983465;28;20388;-66
2021/04/28 03:57:08;;;;;;;5.80;3.03;;;4.70;67.20;;;;;;4966414;28;20027;-66
2021/04/28 03:59:34;;;;;;;7.32;3.90;;;4.80;67.10;;;;;;4967312;28;20023;-67
2021/04/28 04:02:00;;;;;;;6.53;3.30;;;4.80;66.90;;;;;;4977521;28;20114;-66
2021/04/28 04:04:26;;;;;;;7.38;3.10;;;4.80;66.80;;;;;;4966965;28;20110;-66
2021/04/28 04:06:51;;;;;;;6.25;3.70;;;4.80;66.70;;;;;;4975765;28;20027;-66
2021/04/28 04:09:17;;;;;;;8.02;4.10;;;4.80;66.70;;;;;;4979090;28;20041;-66
2021/04/28 04:11:42;;;;;;;5.32;2.88;;;4.80;66.70;;;;;;4970893;28;20401;-66
2021/04/28 04:14:08;;;;;;;6.82;3.28;;;4.80;66.80;;;;;;4967390;28;20031;-66
2021/04/28 04:16:34;;;;;;;8.02;4.00;;;4.80;66.70;;;;;;5006011;28;20028;-66
2021/04/28 04:18:59;;;;;;;6.78;3.25;;;4.80;66.70;;;;;;5061179;28;20032;-66
2021/04/28 04:21:25;;;;;;;6.28;3.55;;;4.80;66.70;;;;;;4978910;28;20052;-66
2021/04/28 04:23:50;;;;;;;7.60;2.97;;;4.80;66.70;;;;;;4972953;28;20477;-66
2021/04/28 04:26:16;;;;;;;6.68;4.22;;;4.80;66.80;;;;;;4960847;28;20035;-66
2021/04/28 04:28:42;;;;;;;7.60;3.55;;;4.80;66.80;;;;;;4965881;28;20119;-66
2021/04/28 04:31:07;;;;;;;5.97;3.60;;;4.80;66.90;;;;;;4952025;28;20042;-66
2021/04/28 04:33:33;;;;;;;8.48;3.60;;;4.90;66.90;;;;;;4956976;28;20042;-66
2021/04/28 04:35:58;;;;;;;7.68;4.05;;;4.80;66.70;;;;;;4954403;28;20484;-66
2021/04/28 04:38:24;;;;;;;6.75;3.10;;;4.90;66.80;;;;;;4954055;28;20470;-66
2021/04/28 04:40:50;;;;;;;10.45;4.80;;;4.90;66.90;;;;;;4956853;28;20393;-66
2021/04/28 04:43:16;;;;;;;7.97;4.15;;;4.90;66.90;;;;;;4953737;28;20027;-66
2021/04/28 04:45:42;;;;;;;7.70;3.42;;;5.00;67.00;;;;;;4954146;28;20428;-66
2021/04/28 04:48:08;;;;;;;8.45;4.28;;;5.00;66.90;;;;;;4953911;28;20036;-66
2021/04/28 04:50:35;;;;;;;9.60;4.90;;;5.00;67.00;;;;;;4957129;28;21272;-66
2021/04/28 04:53:01;;;;;;;5.10;3.55;;;5.10;67.00;;;;;;4958244;28;20055;-66
2021/04/28 04:55:27;;;;;;;8.63;3.42;;;5.20;67.00;;;;;;4954436;28;20027;-67
2021/04/28 04:57:53;;;;;;;9.68;3.47;;;5.20;66.80;;;;;;4960558;28;20027;-68
2021/04/28 05:00:20;;;;;;;8.25;3.88;;;5.30;66.70;;;;;;4954785;28;20047;-68
2021/04/28 05:02:45;;;;;;;7.05;4.20;;;5.30;66.60;;;;;;4952669;28;20046;-68
2021/04/28 05:05:12;;;;;;;6.75;4.00;;;5.40;66.70;;;;;;4953838;28;20481;-68
2021/04/28 05:07:37;;;;;;;10.45;3.78;;;5.30;66.70;;;;;;4959920;28;20442;-68
2021/04/28 05:10:04;;;;;;;8.82;3.70;;;5.30;66.70;;;;;;4957258;28;20067;-68
2021/04/28 05:12:30;;;;;;;7.53;3.60;;;5.30;66.80;;;;;;4959561;28;20051;-68
2021/04/28 05:14:55;;;;;;;8.98;3.50;;;5.30;66.90;;;;;;4969207;28;20081;-68
2021/04/28 05:17:21;;;;;;;6.55;3.97;;;5.30;67.00;;;;;;4963016;28;20028;-68
2021/04/28 05:19:47;;;;;;;6.75;3.47;;;5.30;67.00;;;;;;4954335;28;20118;-68
2021/04/28 05:22:12;;;;;;;12.38;4.00;;;5.40;67.00;;;;;;4964793;28;20370;-68
2021/04/28 05:24:38;;;;;;;5.28;3.60;;;5.50;66.90;;;;;;4962866;28;20385;-69
2021/04/28 05:27:04;;;;;;;5.07;3.33;;;5.60;66.80;;;;;;4958701;28;20477;-68
2021/04/28 05:29:30;;;;;;;6.60;3.47;;;5.70;66.60;;;;;;4952935;28;20046;-68
2021/04/28 05:31:55;;;;;;;6.90;3.80;;;5.80;66.30;;;;;;4960129;28;20058;-68
2021/04/28 05:34:21;;;;;;;9.05;3.58;;;5.80;66.00;;;;;;4960988;28;20069;-68
2021/04/28 05:36:46;;;;;;;6.13;3.95;;;5.90;65.90;;;;;;4967651;28;20102;-68
2021/04/28 05:39:12;;;;;;;7.80;3.60;;;6.00;65.80;;;;;;4954846;28;20024;-68
2021/04/28 05:41:39;;;;;;;7.70;3.70;;;6.10;65.60;;;;;;4957985;28;20082;-68
2021/04/28 05:44:05;;;;;;;5.63;3.15;;;6.20;65.60;;;;;;4960409;28;20503;-68
2021/04/28 05:46:31;;;;;;;7.38;4.15;;;6.20;65.30;;;;;;4955740;28;20031;-68
2021/04/28 05:48:56;;;;;;;5.80;3.25;;;6.30;65.40;;;;;;4963343;28;20087;-68
2021/04/28 05:51:22;;;;;;;6.15;2.97;;;6.40;65.40;;;;;;4967167;28;20406;-68
2021/04/28 05:53:47;;;;;;;6.80;3.85;;;6.50;65.30;;;;;;4961435;28;20031;-68
2021/04/28 05:56:13;;;;;;;5.60;3.45;;;6.60;65.10;;;;;;4957330;28;20035;-68
2021/04/28 05:58:38;;;;;;;7.35;3.30;;;6.70;65.20;;;;;;4951971;28;20062;-68
2021/04/28 06:01:04;;;;;;;7.80;3.72;;;6.80;65.00;;;;;;4953764;28;20024;-68
2021/04/28 06:03:29;;;;;;;4.82;3.13;;;7.00;64.30;;;;;;4963769;28;20499;-68
2021/04/28 06:05:55;;;;;;;8.32;2.97;;;7.20;64.20;;;;;;4972262;28;20035;-68
2021/04/28 06:08:20;;;;;;;7.28;3.67;;;7.30;63.60;;;;;;4952875;28;20505;-68
2021/04/28 06:10:46;;;;;;;5.18;3.15;;;7.50;62.80;;;;;;4952902;28;20102;-68
2021/04/28 06:13:12;;;;;;;8.88;3.65;;;7.60;62.60;;;;;;4952743;28;20051;-69
2021/04/28 06:15:37;;;;;;;7.32;3.88;;;7.60;62.30;;;;;;4952783;28;20031;-68
2021/04/28 06:18:05;;;;;;;13.88;3.58;;;7.70;62.10;;;;;;4952858;28;20027;-68
2021/04/28 06:20:33;;;;;;;9.20;3.60;;;7.80;62.20;;;;;;4951415;28;20027;-68
2021/04/28 06:23:00;;;;;;;5.85;2.50;;;7.80;61.60;;;;;;4952811;28;20027;-68
2021/04/28 06:25:25;;;;;;;10.38;4.10;;;7.90;61.30;;;;;;4954060;28;20040;-69
2021/04/28 06:27:51;;;;;;;10.25;3.10;;;7.90;60.80;;;;;;4952895;28;20028;-68
2021/04/28 06:30:17;;;;;;;7.75;4.18;;;7.90;60.70;;;;;;4952722;28;20030;-69
2021/04/28 06:32:43;;;;;;;11.85;3.33;;;8.00;60.40;;;;;;4957511;28;20527;-69
2021/04/28 06:35:10;;;;;;;10.77;4.30;;;8.00;60.30;;;;;;4952616;28;20027;-68
2021/04/28 06:37:36;;;;;;;13.65;3.83;;;8.10;60.10;;;;;;4951333;28;20031;-69
2021/04/28 06:40:08;;;;;;;9.82;3.80;;;8.10;60.00;;;;;;4961421;28;20053;-68
2021/04/28 06:42:34;;;;;;;9.63;4.57;;;8.20;60.20;;;;;;4953049;28;20031;-68
2021/04/28 06:44:59;;;;;;;9.23;4.22;;;8.30;59.80;;;;;;4971897;28;20121;-68
2021/04/28 06:47:25;;;;;;;9.00;4.32;;;8.40;59.90;;;;;;4959712;28;20477;-68
2021/04/28 06:49:53;;;;;;;7.10;4.15;;;8.50;59.90;;;;;;4955189;28;20041;-68
2021/04/28 06:52:19;;;;;;;8.38;3.95;;;8.70;59.70;;;;;;4951194;28;20462;-68
2021/04/28 06:54:44;;;;;;;8.98;4.03;;;8.70;59.40;;;;;;4952428;28;20110;-68
2021/04/28 06:57:10;;;;;;;8.82;3.90;;;8.80;59.30;;;;;;4953100;28;20511;-69
2021/04/28 06:59:35;;;;;;;10.00;4.53;;;8.80;59.50;;;;;;4960721;28;20053;-68
2021/04/28 07:02:01;;;;;;;7.70;4.40;;;8.90;59.70;;;;;;4953992;28;20031;-69
2021/04/28 07:04:26;;;;;;;7.38;4.03;;;9.10;59.90;;;;;;4951894;28;20366;-69
2021/04/28 07:06:52;;;;;;;8.25;4.30;;;9.30;59.70;;;;;;4951902;28;20039;-69
2021/04/28 07:09:18;;;;;;;8.23;4.03;;;9.50;59.50;;;;;;4951929;28;20106;-68
2021/04/28 07:11:44;;;;;;;11.25;4.18;;;9.60;58.70;;;;;;4950508;28;20050;-68
2021/04/28 07:14:10;;;;;;;5.95;3.78;;;9.50;58.10;;;;;;4951164;28;20404;-68
2021/04/28 07:16:35;;;;;;;8.10;4.28;;;9.50;57.50;;;;;;4952162;28;20023;-68
2021/04/28 07:19:01;;;;;;;10.30;4.75;;;9.60;57.70;;;;;;4951677;28;20055;-68
2021/04/28 07:21:26;;;;;;;5.38;4.00;;;9.60;57.50;;;;;;4951860;28;20114;-69
2021/04/28 07:23:52;;;;;;;8.98;4.10;;;9.60;57.40;;;;;;4951724;28;20019;-68
2021/04/28 07:26:18;;;;;;;12.82;4.40;;;9.70;57.30;;;;;;4951922;28;20481;-69
2021/04/28 07:28:49;;;;;;;8.90;4.15;;;9.80;57.30;;;;;;4951895;28;20028;-68
2021/04/28 07:31:19;;;;;;;7.60;4.70;;;9.80;56.70;;;;;;4951886;29;20023;-69
2021/04/28 07:33:45;;;;;;;9.57;4.82;;;9.80;57.10;;;;;;4951743;28;20469;-68
2021/04/28 07:36:11;;;;;;;5.78;3.65;;;9.70;56.40;;;;;;4952078;28;20393;-68
2021/04/28 07:38:37;;;;;;;9.35;4.25;;;9.70;56.40;;;;;;4951878;28;20027;-68
2021/04/28 07:41:03;;;;;;;15.40;5.38;;;9.60;56.80;;;;;;4950612;28;20062;-69
2021/04/28 07:43:29;;;;;;;7.28;4.53;;;9.60;56.50;;;;;;4950262;28;20114;-69
2021/04/28 07:45:54;;;;;;;7.63;4.68;;;9.60;56.40;;;;;;4951882;28;20156;-68
2021/04/28 07:48:21;;;;;;;7.78;4.43;;;9.60;56.40;;;;;;4955329;28;20050;-69
2021/04/28 07:50:47;;;;;;;7.30;4.35;;;9.60;56.70;;;;;;4957765;28;20035;-69
2021/04/28 07:53:13;;;;;;;7.90;4.80;;;9.70;56.80;;;;;;4960276;28;20034;-69
2021/04/28 07:55:39;;;;;;;9.82;4.60;;;9.90;56.50;;;;;;4967455;28;20074;-69
2021/04/28 07:58:05;;;;;;;6.55;4.07;;;9.90;56.30;;;;;;4951996;28;20105;-67
2021/04/28 08:00:31;;;;;;;9.50;4.22;;;9.90;56.70;;;;;;4954712;28;20445;-69
2021/04/28 08:02:56;;;;;;;7.53;4.53;;;10.00;56.40;;;;;;4955052;28;20031;-69
2021/04/28 08:05:22;;;;;;;6.45;4.45;;;10.10;56.00;;;;;;4954615;28;20150;-69
2021/04/28 08:07:48;;;;;;;8.18;5.00;;;10.30;56.10;;;;;;4988555;28;20056;-68
2021/04/28 08:10:14;;;;;;;9.13;4.60;;;10.50;56.00;;;;;;4979373;28;20035;-70
2021/04/28 08:12:40;;;;;;;8.18;4.10;;;10.60;56.00;;;;;;4959379;28;20058;-69
2021/04/28 08:15:07;;;;;;;9.57;5.10;;;10.80;56.10;;;;;;4959785;28;20473;-68
2021/04/28 08:17:32;;;;;;;7.55;4.72;;;10.90;55.30;;;;;;4955079;28;20026;-68
2021/04/28 08:19:59;;;;;;;8.10;4.63;;;10.80;55.10;;;;;;4954803;28;20028;-68
2021/04/28 08:22:25;;;;;;;6.50;4.60;;;10.90;55.40;;;;;;4954547;28;20039;-69
2021/04/28 08:24:51;;;;;;;6.97;3.95;;;11.00;55.50;;;;;;4955350;28;20023;-68
2021/04/28 08:27:17;;;;;;;7.35;5.05;;;11.10;55.40;;;;;;4954948;28;20468;-69
2021/04/28 08:29:43;;;;;;;10.63;5.32;;;11.20;55.40;;;;;;4961555;28;20031;-69
2021/04/28 08:32:08;;;;;;;8.43;4.78;;;11.30;54.70;;;;;;4958438;28;20063;-68
2021/04/28 08:34:34;;;;;;;8.60;4.57;;;11.30;54.00;;;;;;4972887;28;20499;-68
2021/04/28 08:36:59;;;;;;;11.15;4.45;;;11.30;54.50;;;;;;4967374;28;20027;-68
2021/04/28 08:39:25;;;;;;;9.32;4.80;;;11.50;54.80;;;;;;4965359;28;20084;-68
2021/04/28 08:41:51;;;;;;;6.93;4.10;;;11.60;54.50;;;;;;4954232;28;20031;-68
2021/04/28 08:44:17;;;;;;;8.23;5.20;;;11.70;54.50;;;;;;4955703;28;20161;-68
2021/04/28 08:46:43;;;;;;;11.38;5.22;;;11.80;54.40;;;;;;4957686;28;20110;-68
2021/04/28 08:49:09;;;;;;;7.00;4.53;;;11.90;54.30;;;;;;4963710;28;20102;-68
2021/04/28 08:51:39;;;;;;;10.65;5.07;;;12.00;53.60;;;;;;4960882;28;20065;-69
2021/04/28 08:54:05;;;;;;;12.20;5.15;;;12.00;53.60;;;;;;4953815;28;20106;-69
2021/04/28 08:56:31;;;;;;;8.32;4.80;;;12.00;53.50;;;;;;4960750;28;20031;-68
2021/04/28 08:58:58;;;;;;;9.43;5.00;;;12.00;53.50;;;;;;4953127;28;20027;-69
2021/04/28 09:01:32;;;;;;;7.97;5.18;;;12.00;53.90;;;;;;4954014;28;20451;-68
2021/04/28 09:03:59;;;;;;;9.98;4.88;;;12.00;53.30;;;;;;4959758;28;20046;-68
2021/04/28 09:06:33;;;;;;;10.57;5.40;;;12.20;53.40;;;;;;4972020;28;20034;-69
2021/04/28 09:09:19;;;;;;;7.60;4.95;;;12.30;52.50;;;;;;4963878;28;20061;-68
2021/04/28 09:11:53;;;;;;;12.75;5.95;;;12.40;52.80;;;;;;4954681;28;20066;-69
2021/04/28 09:14:27;;;;;;;9.35;4.82;;;12.70;52.30;;;;;;4957873;28;20026;-68
2021/04/28 09:17:07;;;;;;;10.75;5.65;;;12.80;52.40;;;;;;4970107;28;20022;-69
2021/04/28 09:19:43;;;;;;;9.80;5.75;;;13.00;52.50;;;;;;4952920;28;20034;-68
2021/04/28 09:22:12;;;;;;;9.43;5.72;;;13.20;52.00;;;;;;4970067;28;20511;-69
2021/04/28 09:24:49;;;;;;;10.27;6.10;;;13.40;51.60;;;;;;4957190;28;20027;-69
2021/04/28 09:27:26;;;;;;;9.68;5.60;;;13.60;51.20;;;;;;4953608;29;20165;-69
2021/04/28 09:29:53;;;;;;;7.13;4.85;;;13.80;51.00;;;;;;4953756;28;20381;-68
2021/04/28 09:32:19;;;;;;;7.80;4.78;;;14.10;50.40;;;;;;4953760;28;20019;-69
2021/04/28 09:34:45;;;;;;;12.82;5.47;;;14.20;49.90;;;;;;4970103;28;20031;-69
2021/04/28 09:37:16;;;;;;;9.02;6.35;;;14.40;49.50;;;;;;4957629;28;20047;-69
2021/04/28 09:39:47;;;;;;;10.52;6.88;;;14.50;48.80;;;;;;4951066;28;20030;-69
2021/04/28 09:42:20;;;;;;;12.50;5.28;;;14.60;47.20;;;;;;4960559;28;20423;-69
2021/04/28 09:44:48;;;;;;;8.60;5.05;;;14.80;47.80;;;;;;4972843;28;20027;-69
2021/04/28 09:47:22;;;;;;;8.73;5.28;;;15.00;47.90;;;;;;4953733;28;20020;-69
2021/04/28 09:49:52;;;;;;;7.50;5.72;;;15.20;47.50;;;;;;4953036;29;20454;-69
2021/04/28 09:52:24;;;;;;;12.43;6.63;;;15.20;46.10;;;;;;4954978;28;20034;-69
2021/04/28 09:54:52;;;;;;;8.65;6.10;;;15.10;45.90;;;;;;4962087;28;20495;-69
2021/04/28 09:57:36;;;;;;;11.45;5.68;;;15.00;45.80;;;;;;4962688;28;20027;-69
2021/04/28 10:00:13;;;;;;;14.93;6.60;;;15.00;46.20;;;;;;4957165;28;20023;-69
2021/04/28 10:02:38;;;;;;;14.50;6.57;;;15.00;46.60;;;;;;4951158;28;20082;-69
2021/04/28 10:05:23;;;;;;;12.00;6.10;;;15.20;47.20;;;;;;4962966;28;20483;-69
2021/04/28 10:07:51;;;;;;;13.48;6.65;;;15.30;46.20;;;;;;4954385;28;20390;-68
2021/04/28 10:10:18;;;;;;;11.80;6.43;;;15.30;45.40;;;;;;4953943;28;20034;-69
2021/04/28 10:12:44;;;;;;;9.48;5.80;;;15.20;45.80;;;;;;4952214;28;20050;-69
2021/04/28 10:15:10;;;;;;;11.05;5.82;;;15.20;46.30;;;;;;4953447;28;20032;-69
2021/04/28 10:17:38;;;;;;;10.10;6.05;;;15.30;46.40;;;;;;4953102;28;20028;-69
2021/04/28 10:20:06;;;;;;;18.48;6.32;;;15.30;46.60;;;;;;4965567;28;20498;-69
2021/04/28 10:22:32;;;;;;;11.75;5.75;;;15.40;46.60;;;;;;4961097;28;20039;-68
2021/04/28 10:24:59;;;;;;;10.93;5.95;;;15.40;46.70;;;;;;4965140;28;20041;-69
2021/04/28 10:27:27;;;;;;;12.55;6.15;;;15.50;46.50;;;;;;4966691;28;20492;-69
2021/04/28 10:29:53;;;;;;;9.68;6.35;;;15.40;46.10;;;;;;4952600;28;20081;-69
2021/04/28 10:32:22;;;;;;;12.15;6.90;;;15.40;46.40;;;;;;4958261;28;20062;-69
2021/04/28 10:35:08;;;;;;;14.85;6.68;;;15.50;47.60;;;;;;4958478;28;20019;-69
2021/04/28 10:37:36;;;;;;;12.52;6.80;;;15.80;46.60;;;;;;4951324;28;20103;-69
2021/04/28 10:40:10;;;;;;;9.52;6.63;;;15.90;46.60;;;;;;4953180;28;20024;-69
2021/04/28 10:42:36;;;;;;;14.43;7.95;;;16.20;46.40;;;;;;4951353;28;20027;-69
2021/04/28 10:45:30;;;;;;;10.27;6.85;;;16.40;45.50;;;;;;4952626;28;20015;-69
2021/04/28 10:47:56;;;;;;;10.98;7.22;;;16.50;45.30;;;;;;4961470;28;20041;-69
2021/04/28 10:50:46;;;;;;;11.60;6.68;;;16.60;44.40;;;;;;4960665;28;20027;-69
2021/04/28 10:53:19;;;;;;;9.82;7.70;;;16.70;44.30;;;;;;4954804;28;20416;-69
2021/04/28 10:55:54;;;;;;;13.70;8.27;;;16.80;43.70;;;;;;4953819;28;20023;-69
2021/04/28 10:58:26;;;;;;;11.45;7.32;;;16.70;43.90;;;;;;4952219;28;20027;-69
2021/04/28 11:01:06;;;;;;;12.20;7.78;;;16.80;44.30;;;;;;4951579;28;20027;-68
2021/04/28 11:03:41;;;;;;;11.52;7.63;;;16.90;44.00;;;;;;4952207;28;20485;-70
2021/04/28 11:06:19;;;;;;;9.52;6.72;;;16.90;43.90;;;;;;4952951;28;20030;-69
2021/04/28 11:09:06;;;;;;;10.75;7.80;;;17.00;43.90;;;;;;4952247;28;20023;-68
2021/04/28 11:14:30;;;;;;;12.57;8.07;;;16.90;43.60;;;;;;4954675;28;20039;-68
2021/04/28 11:17:03;;;;;;;15.00;8.00;;;17.00;43.80;;;;;;4951364;28;20035;-69
2021/04/28 11:19:28;;;;;;;15.25;9.02;;;17.00;43.60;;;;;;4960184;28;20069;-69
2021/04/28 11:22:03;;;;;;;9.90;7.70;;;16.90;43.50;;;;;;4954266;28;20530;-69
2021/04/28 11:25:01;;;;;;;14.13;8.02;;;17.00;43.50;;;;;;4955725;28;20031;-69
2021/04/28 11:27:45;;;;;;;11.25;8.15;;;17.20;43.20;;;;;;4960589;28;20092;-68
2021/04/28 11:30:35;;;;;;;15.50;8.95;;;17.20;44.00;;;;;;4954091;28;20027;-68
2021/04/28 11:33:30;;;;;;;18.52;11.65;;;17.50;43.70;;;;;;4966219;28;20038;-68
2021/04/28 11:35:55;;;;;;;14.48;9.50;;;17.60;43.80;;;;;;4969738;28;20046;-68
2021/04/28 11:38:29;;;;;;;14.35;9.30;;;17.80;43.40;;;;;;4957757;28;20128;-68
2021/04/28 11:41:11;;;;;;;13.13;8.55;;;18.00;43.10;;;;;;4958932;28;20031;-68
2021/04/28 11:43:45;;;;;;;10.15;8.23;;;18.20;42.80;;;;;;4957839;28;20062;-69
2021/04/28 11:46:16;;;;;;;11.52;8.35;;;18.30;42.50;;;;;;4967969;28;20027;-69
2021/04/28 11:48:43;;;;;;;21.27;8.82;;;18.30;42.50;;;;;;4996317;22;20070;-74
2021/04/28 11:51:18;;;;;;;13.35;8.98;;;18.30;41.10;;;;;;4992827;28;20073;-73
2021/04/28 11:53:49;;;;;;;14.93;10.07;;;18.20;41.10;;;;;;5000833;28;20396;-73
2021/04/28 11:56:32;;;;;;;10.95;7.93;;;18.30;40.70;;;;;;5012873;28;20026;-71
2021/04/28 11:58:59;;;;;;;10.13;8.15;;;18.30;40.20;;;;;;4997199;28;20394;-71
2021/04/28 12:01:31;;;;;;;11.75;8.75;;;18.30;41.00;;;;;;4996419;28;20022;-72
2021/04/28 12:04:07;;;;;;;12.07;8.98;;;18.40;39.80;;;;;;5003105;28;20023;-72
2021/04/28 12:06:43;;;;;;;15.35;9.38;;;18.50;40.10;;;;;;5009930;28;20034;-71
2021/04/28 12:09:17;;;;;;;12.27;8.70;;;18.50;40.00;;;;;;5013086;28;20034;-72
2021/04/28 12:11:48;;;;;;;14.73;8.32;;;18.70;40.30;;;;;;5012741;28;20104;-72
2021/04/28 12:14:23;;;;;;;12.25;8.52;;;18.80;40.60;;;;;;5009718;28;20065;-73
2021/04/28 12:16:55;;;;;;;8.95;7.80;;;19.00;39.80;;;;;;5007645;28;20423;-73
2021/04/28 12:19:21;;;;;;;14.95;9.98;;;19.20;40.40;;;;;;5011691;28;20420;-73
2021/04/28 12:22:03;;;;;;;14.13;10.35;;;19.20;39.80;;;;;;4999043;28;20041;-73
2021/04/28 12:24:44;;;;;;;13.95;8.75;;;19.30;39.50;;;;;;5007135;28;20389;-73
2021/04/28 12:27:38;;;;;;;12.33;8.90;;;19.40;40.00;;;;;;5012392;28;20108;-73
2021/04/28 12:30:12;;;;;;;15.30;9.48;;;19.70;39.40;;;;;;5014967;28;20288;-73
2021/04/28 12:32:45;;;;;;;10.85;8.30;;;19.80;38.70;;;;;;5011617;28;20421;-73
2021/04/28 12:35:21;;;;;;;16.95;9.50;;;19.90;38.70;;;;;;5011496;28;20110;-73
2021/04/28 12:38:14;;;;;;;15.60;9.27;;;20.10;38.10;;;;;;5010463;28;20101;-73
2021/04/28 12:40:58;;;;;;;10.25;8.38;;;20.20;38.50;;;;;;5003244;28;20026;-73
2021/04/28 12:43:35;;;;;;;12.82;5.75;;;20.40;38.00;;;;;;5010575;28;20482;-74
2021/04/28 12:46:03;;;;;;;7.95;4.72;;;20.70;36.30;;;;;;5011965;28;20493;-73
2021/04/28 12:48:53;;;;;;;7.90;5.30;;;20.80;34.90;;;;;;5002514;28;20050;-74
2021/04/28 12:51:19;;;;;;;7.90;4.93;;;20.90;33.10;;;;;;5012258;28;20108;-73
2021/04/28 12:53:45;;;;;;;8.35;5.65;;;20.90;33.50;;;;;;5004018;28;20583;-74
2021/04/28 12:56:13;;;;;;;6.85;5.63;;;21.00;33.20;;;;;;5009792;28;20470;-74
2021/04/28 12:58:47;;;;;;;8.88;4.72;;;21.20;33.00;;;;;;5012189;28;20034;-73
2021/04/28 13:01:24;;;;;;;9.52;6.47;;;21.30;32.80;;;;;;5011686;28;20022;-73